Time;durP1;ratioP1;P1;durP2;ratioP2;P2;SDS_P1;SDS_P2;PMS_P1;PMS_P2;Temp;Humidity;BMP_temperature;BMP_pressure;BME280_temperature;BME280_humidity;BME280_pressure;Samples;Min_cycle;Max_cycle;Signal;HPM_P1;HPM_P2
2023/10/21 00:01:48;;;;;;;2.33;0.90;;;;;;;;;;5049459;28;20025;-71
2023/10/21 00:04:14;;;;;;;1.33;0.70;;;;;;;;;;5042404;28;20263;-70
2023/10/21 00:06:40;;;;;;;5.35;0.90;;;;;;;;;;5042540;28;20013;-70
2023/10/21 00:09:05;;;;;;;4.57;1.10;;;;;;;;;;5038676;28;20017;-70
2023/10/21 00:11:30;;;;;;;4.07;0.93;;;;;;;;;;5041053;28;20635;-70
2023/10/21 00:13:55;;;;;;;2.63;0.77;;;;;;;;;;5041608;28;20307;-70
2023/10/21 00:16:21;;;;;;;1.10;0.88;;;;;;;;;;5044583;28;20048;-69
2023/10/21 00:18:46;;;;;;;1.07;0.50;;;;;;;;;;5036277;28;20473;-71
2023/10/21 00:21:12;;;;;;;2.63;1.00;;;;;;;;;;5047035;28;20256;-72
2023/10/21 00:23:37;;;;;;;1.10;0.77;;;;;;;;;;5039046;28;20025;-72
2023/10/21 00:26:02;;;;;;;3.90;0.90;;;;;;;;;;5045467;28;20120;-73
2023/10/21 00:28:28;;;;;;;3.08;0.75;;;;;;;;;;5036472;28;20279;-73
2023/10/21 00:30:53;;;;;;;7.50;1.00;;;;;;;;;;5045365;28;20025;-72
2023/10/21 00:33:18;;;;;;;2.53;0.97;;;;;;;;;;5047191;28;20070;-73
2023/10/21 00:35:45;;;;;;;1.77;0.80;;;;;;;;;;5036505;28;20782;-73
2023/10/21 00:38:10;;;;;;;3.22;1.75;;;;;;;;;;5046120;28;20503;-73
2023/10/21 00:40:35;;;;;;;1.90;0.90;;;;;;;;;;5039893;28;20532;-72
2023/10/21 00:43:00;;;;;;;2.42;1.00;;;;;;;;;;5040445;28;20290;-73
2023/10/21 00:45:26;;;;;;;5.53;1.50;;;;;;;;;;5034223;28;20025;-73
2023/10/21 00:47:51;;;;;;;3.45;1.02;;;;;;;;;;5034150;28;20613;-74
2023/10/21 00:50:16;;;;;;;6.43;0.98;;;;;;;;;;5039726;28;20481;-73
2023/10/21 00:52:44;;;;;;;2.97;0.95;;;;;;;;;;5023284;28;20022;-74
2023/10/21 00:55:10;;;;;;;4.18;1.02;;;;;;;;;;5025599;28;20033;-73
2023/10/21 00:57:36;;;;;;;1.25;0.63;;;;;;;;;;5029107;28;20030;-73
2023/10/21 01:00:03;;;;;;;4.15;1.48;;;;;;;;;;5036340;28;20088;-73
2023/10/21 01:02:28;;;;;;;4.72;1.10;;;;;;;;;;5039178;28;20017;-73
2023/10/21 01:04:53;;;;;;;1.92;0.90;;;;;;;;;;5041092;28;20021;-73
2023/10/21 01:07:18;;;;;;;2.57;1.10;;;;;;;;;;5041118;28;20063;-72
2023/10/21 01:09:43;;;;;;;0.97;0.73;;;;;;;;;;5043012;28;20272;-74
2023/10/21 01:12:09;;;;;;;1.65;0.80;;;;;;;;;;5027703;28;20264;-73
2023/10/21 01:14:34;;;;;;;3.03;1.47;;;;;;;;;;5031533;28;20026;-72
2023/10/21 01:16:59;;;;;;;6.40;1.10;;;;;;;;;;5024815;28;20307;-73
2023/10/21 01:19:24;;;;;;;3.73;0.90;;;;;;;;;;5022721;28;20272;-73
2023/10/21 01:21:49;;;;;;;4.43;1.10;;;;;;;;;;5026357;28;20268;-73
2023/10/21 01:24:14;;;;;;;4.87;1.33;;;;;;;;;;5020036;28;20355;-73
2023/10/21 01:26:40;;;;;;;2.07;1.00;;;;;;;;;;5027861;28;20601;-73
2023/10/21 01:29:05;;;;;;;1.53;0.80;;;;;;;;;;5020250;28;20061;-73
2023/10/21 01:31:32;;;;;;;3.38;0.88;;;;;;;;;;5011934;28;20360;-73
2023/10/21 01:33:57;;;;;;;1.13;0.73;;;;;;;;;;5012845;28;20057;-73
2023/10/21 01:36:23;;;;;;;3.05;1.23;;;;;;;;;;5025550;28;20049;-73
2023/10/21 01:38:48;;;;;;;3.23;0.90;;;;;;;;;;5022584;28;20069;-73
2023/10/21 01:41:13;;;;;;;1.90;0.97;;;;;;;;;;5023971;28;20342;-73
2023/10/21 01:43:39;;;;;;;1.23;1.00;;;;;;;;;;5011962;28;20114;-73
2023/10/21 01:46:05;;;;;;;2.25;0.75;;;;;;;;;;5022844;28;20260;-72
2023/10/21 01:48:30;;;;;;;4.00;0.82;;;;;;;;;;5024078;28;20033;-73
2023/10/21 01:51:04;;;;;;;3.25;1.00;;;;;;;;;;5012739;28;20022;-73
2023/10/21 01:53:31;;;;;;;7.82;1.33;;;;;;;;;;5024477;28;20053;-72
2023/10/21 01:56:00;;;;;;;2.08;0.95;;;;;;;;;;5017302;28;20025;-74
2023/10/21 01:58:25;;;;;;;1.92;0.82;;;;;;;;;;5021911;28;20021;-73
2023/10/21 02:00:50;;;;;;;7.03;1.20;;;;;;;;;;5023993;28;20022;-72
2023/10/21 02:03:15;;;;;;;4.15;1.17;;;;;;;;;;5025281;28;20346;-73
2023/10/21 02:05:41;;;;;;;3.37;1.30;;;;;;;;;;5021900;28;20049;-73
2023/10/21 02:08:06;;;;;;;3.33;1.30;;;;;;;;;;5025944;28;20280;-73
2023/10/21 02:10:32;;;;;;;5.67;1.50;;;;;;;;;;5012063;28;20088;-73
2023/10/21 02:12:57;;;;;;;3.23;1.60;;;;;;;;;;5012836;28;20351;-73
2023/10/21 02:15:22;;;;;;;2.78;1.50;;;;;;;;;;5014583;28;20273;-73
2023/10/21 02:17:48;;;;;;;8.05;1.52;;;;;;;;;;5020973;28;20049;-73
2023/10/21 02:20:14;;;;;;;5.50;1.50;;;;;;;;;;5018821;28;20025;-72
2023/10/21 02:22:39;;;;;;;4.57;1.48;;;;;;;;;;5011731;28;20025;-73
2023/10/21 02:25:07;;;;;;;2.97;1.65;;;;;;;;;;5015436;28;20026;-73
2023/10/21 02:27:32;;;;;;;2.45;1.30;;;;;;;;;;5022229;28;20437;-73
2023/10/21 02:29:58;;;;;;;3.63;1.47;;;;;;;;;;5021177;28;20013;-73
2023/10/21 02:32:23;;;;;;;1.85;1.23;;;;;;;;;;5025104;28;20278;-73
2023/10/21 02:34:49;;;;;;;1.83;1.00;;;;;;;;;;5014452;28;20064;-73
2023/10/21 02:37:14;;;;;;;4.72;1.40;;;;;;;;;;5021377;28;20655;-71
2023/10/21 02:39:39;;;;;;;2.67;1.30;;;;;;;;;;5020875;28;20116;-71
2023/10/21 02:42:04;;;;;;;2.45;1.30;;;;;;;;;;5012658;28;20322;-71
2023/10/21 02:44:29;;;;;;;10.40;1.90;;;;;;;;;;5014351;28;20051;-71
2023/10/21 02:46:54;;;;;;;5.13;1.80;;;;;;;;;;5020847;28;20317;-71
2023/10/21 02:49:20;;;;;;;5.57;2.27;;;;;;;;;;5024208;28;20368;-71
2023/10/21 02:51:45;;;;;;;3.83;2.50;;;;;;;;;;5013309;28;20072;-71
2023/10/21 02:54:10;;;;;;;2.63;1.48;;;;;;;;;;5017085;28;20108;-70
2023/10/21 02:56:35;;;;;;;11.05;1.60;;;;;;;;;;5026670;28;20070;-71
2023/10/21 02:59:00;;;;;;;4.90;2.10;;;;;;;;;;5024907;28;20100;-71
2023/10/21 03:01:26;;;;;;;2.77;1.10;;;;;;;;;;5022132;28;20026;-71
2023/10/21 03:03:52;;;;;;;4.32;1.27;;;;;;;;;;5015428;28;20379;-71
2023/10/21 03:06:18;;;;;;;5.50;1.27;;;;;;;;;;5023181;28;20022;-71
2023/10/21 03:08:43;;;;;;;4.55;1.48;;;;;;;;;;5029644;28;20067;-71
2023/10/21 03:11:08;;;;;;;4.50;1.37;;;;;;;;;;5017281;28;20097;-71
2023/10/21 03:13:34;;;;;;;2.90;1.88;;;;;;;;;;5022766;28;20266;-71
2023/10/21 03:16:03;;;;;;;5.15;1.98;;;;;;;;;;5023750;28;20027;-71
2023/10/21 03:18:29;;;;;;;4.18;1.60;;;;;;;;;;5029657;28;20504;-70
2023/10/21 03:20:54;;;;;;;6.07;2.13;;;;;;;;;;5018643;28;20026;-71
2023/10/21 03:23:19;;;;;;;4.45;2.10;;;;;;;;;;5021963;28;20113;-71
2023/10/21 03:25:54;;;;;;;6.13;2.40;;;;;;;;;;5023559;28;20029;-71
2023/10/21 03:28:20;;;;;;;3.78;2.40;;;;;;;;;;5021037;28;20035;-72
2023/10/21 03:30:46;;;;;;;4.10;2.47;;;;;;;;;;5024793;28;20025;-70
2023/10/21 03:33:12;;;;;;;7.32;3.03;;;;;;;;;;5020347;28;20017;-72
2023/10/21 03:35:37;;;;;;;4.17;2.77;;;;;;;;;;5014951;28;20044;-70
2023/10/21 03:38:02;;;;;;;7.30;3.13;;;;;;;;;;5019850;28;20276;-71
2023/10/21 03:40:27;;;;;;;10.13;3.38;;;;;;;;;;5025962;28;20269;-70
2023/10/21 03:42:53;;;;;;;8.27;3.47;;;;;;;;;;5020359;28;20100;-71
2023/10/21 03:45:18;;;;;;;6.10;3.60;;;;;;;;;;5015722;28;20263;-71
2023/10/21 03:47:43;;;;;;;8.07;3.17;;;;;;;;;;5018873;28;20482;-71
2023/10/21 03:50:08;;;;;;;6.50;3.47;;;;;;;;;;5026217;28;20355;-73
2023/10/21 03:52:34;;;;;;;5.70;2.80;;;;;;;;;;5031846;28;20033;-73
2023/10/21 03:54:59;;;;;;;7.83;4.10;;;;;;;;;;5015866;28;20045;-73
2023/10/21 03:57:24;;;;;;;5.07;2.60;;;;;;;;;;5017631;28;20334;-73
2023/10/21 03:59:49;;;;;;;8.53;2.70;;;;;;;;;;5023714;28;20029;-73
2023/10/21 04:02:14;;;;;;;5.57;2.87;;;;;;;;;;5018280;28;20635;-73
2023/10/21 04:04:40;;;;;;;7.33;3.23;;;;;;;;;;5020546;28;20280;-72
2023/10/21 04:07:05;;;;;;;4.57;3.03;;;;;;;;;;5023527;28;20294;-73
2023/10/21 04:09:30;;;;;;;9.00;4.22;;;;;;;;;;5020301;28;20285;-73
2023/10/21 04:11:56;;;;;;;5.90;3.17;;;;;;;;;;5017545;28;20010;-72
2023/10/21 04:14:21;;;;;;;5.60;3.07;;;;;;;;;;5018556;28;20029;-71
2023/10/21 04:16:46;;;;;;;10.67;4.10;;;;;;;;;;5027356;28;20260;-70
2023/10/21 04:19:11;;;;;;;7.30;3.03;;;;;;;;;;5036497;28;20760;-71
2023/10/21 04:21:36;;;;;;;4.18;2.70;;;;;;;;;;5015115;28;20340;-71
2023/10/21 04:24:03;;;;;;;5.40;1.93;;;;;;;;;;5020831;28;20057;-70
2023/10/21 04:26:28;;;;;;;6.22;2.53;;;;;;;;;;5028728;28;20279;-71
2023/10/21 04:28:53;;;;;;;5.90;3.25;;;;;;;;;;5026056;28;20068;-70
2023/10/21 04:31:18;;;;;;;8.60;3.13;;;;;;;;;;5026079;28;20068;-70
2023/10/21 04:33:45;;;;;;;5.30;2.90;;;;;;;;;;5014109;28;20830;-70
2023/10/21 04:36:10;;;;;;;4.90;3.13;;;;;;;;;;5019784;28;20022;-70
2023/10/21 04:38:35;;;;;;;4.93;3.00;;;;;;;;;;5027189;28;20567;-70
2023/10/21 04:41:00;;;;;;;4.73;3.00;;;;;;;;;;5017313;28;20292;-70
2023/10/21 04:43:25;;;;;;;7.33;3.30;;;;;;;;;;5014260;28;20344;-71
2023/10/21 04:45:51;;;;;;;4.53;3.00;;;;;;;;;;5033095;28;20784;-70
2023/10/21 04:48:16;;;;;;;8.00;2.97;;;;;;;;;;5025591;28;20356;-70
2023/10/21 04:50:41;;;;;;;5.33;2.73;;;;;;;;;;5018671;28;20776;-70
2023/10/21 04:53:06;;;;;;;8.20;3.00;;;;;;;;;;5014910;28;20094;-71
2023/10/21 04:55:31;;;;;;;6.33;3.40;;;;;;;;;;5016913;28;20816;-69
2023/10/21 04:57:57;;;;;;;10.07;3.57;;;;;;;;;;5022071;28;20268;-71
2023/10/21 05:00:22;;;;;;;5.20;2.78;;;;;;;;;;5014495;28;20431;-70
2023/10/21 05:02:48;;;;;;;5.95;3.38;;;;;;;;;;5014772;28;20048;-71
2023/10/21 05:05:14;;;;;;;7.13;2.97;;;;;;;;;;5019998;28;20386;-70
2023/10/21 05:07:39;;;;;;;11.43;3.10;;;;;;;;;;5020124;28;20800;-70
2023/10/21 05:10:05;;;;;;;10.63;3.08;;;;;;;;;;5015062;28;20090;-71
2023/10/21 05:12:30;;;;;;;4.40;2.47;;;;;;;;;;5014285;28;20037;-71
2023/10/21 05:14:55;;;;;;;8.17;3.33;;;;;;;;;;5023583;28;20013;-69
2023/10/21 05:17:20;;;;;;;8.02;3.17;;;;;;;;;;5024526;28;20729;-71
2023/10/21 05:19:46;;;;;;;5.57;2.60;;;;;;;;;;5026538;28;20025;-71
2023/10/21 05:22:11;;;;;;;4.67;2.40;;;;;;;;;;5015977;28;20666;-71
2023/10/21 05:24:36;;;;;;;5.80;2.33;;;;;;;;;;5018498;28;20268;-71
2023/10/21 05:27:01;;;;;;;4.60;1.83;;;;;;;;;;5021248;28;20268;-71
2023/10/21 05:29:27;;;;;;;1.80;1.30;;;;;;;;;;5020003;28;20544;-71
2023/10/21 05:31:52;;;;;;;2.85;2.10;;;;;;;;;;5013855;28;20261;-71
2023/10/21 05:34:20;;;;;;;3.20;1.90;;;;;;;;;;5022803;28;20048;-71
2023/10/21 05:36:45;;;;;;;2.63;1.70;;;;;;;;;;5034302;28;20010;-71
2023/10/21 05:39:13;;;;;;;5.40;1.92;;;;;;;;;;5034643;28;20033;-70
2023/10/21 05:41:39;;;;;;;4.30;1.85;;;;;;;;;;5043839;28;20036;-71
2023/10/21 05:44:05;;;;;;;4.13;1.70;;;;;;;;;;5039524;28;20021;-71
2023/10/21 05:46:30;;;;;;;2.00;1.60;;;;;;;;;;5037940;28;20027;-73
2023/10/21 05:48:55;;;;;;;3.63;1.27;;;;;;;;;;5040379;28;20036;-72
2023/10/21 05:51:20;;;;;;;7.15;1.42;;;;;;;;;;5032979;28;20356;-73
2023/10/21 05:53:46;;;;;;;1.73;1.10;;;;;;;;;;5036306;28;20018;-73
2023/10/21 05:56:12;;;;;;;1.02;0.60;;;;;;;;;;5033537;28;20036;-73
2023/10/21 05:58:38;;;;;;;5.22;1.00;;;;;;;;;;5023356;28;20080;-73
2023/10/21 06:01:08;;;;;;;0.30;0.30;;;;;;;;;;5025705;28;20485;-73
2023/10/21 06:03:33;;;;;;;;;;;;;;;;;;5030189;28;20064;-73
2023/10/21 06:05:58;;;;;;;0.85;0.70;;;;;;;;;;5033922;28;19905;-73
2023/10/21 06:08:23;;;;;;;2.83;1.93;;;;;;;;;;5030916;28;20036;-73
2023/10/21 06:10:49;;;;;;;2.17;1.40;;;;;;;;;;5041904;28;20287;-73
2023/10/21 06:13:15;;;;;;;3.53;1.53;;;;;;;;;;5039013;28;20256;-73
2023/10/21 06:15:40;;;;;;;2.17;0.90;;;;;;;;;;5030400;28;20268;-72
2023/10/21 06:18:06;;;;;;;1.57;0.70;;;;;;;;;;5025064;28;20082;-73
2023/10/21 06:20:32;;;;;;;2.60;1.48;;;;;;;;;;5031645;28;20271;-73
2023/10/21 06:22:57;;;;;;;4.90;0.95;;;;;;;;;;5035138;28;20013;-73
2023/10/21 06:25:22;;;;;;;0.65;0.60;;;;;;;;;;5022501;28;20385;-73
2023/10/21 06:27:47;;;;;;;2.27;0.80;;;;;;;;;;5029503;28;20037;-73
2023/10/21 06:30:13;;;;;;;3.00;0.87;;;;;;;;;;5029332;28;20269;-73
2023/10/21 06:32:38;;;;;;;12.07;1.52;;;;;;;;;;5038420;28;20275;-72
2023/10/21 06:35:03;;;;;;;5.27;2.23;;;;;;;;;;5037182;28;20013;-73
2023/10/21 06:37:28;;;;;;;4.13;0.80;;;;;;;;;;5035839;28;20292;-73
2023/10/21 06:39:53;;;;;;;3.90;1.10;;;;;;;;;;5027158;28;20029;-73
2023/10/21 06:42:19;;;;;;;1.13;0.50;;;;;;;;;;5037768;28;20710;-73
2023/10/21 06:44:44;;;;;;;0.17;0.17;;;;;;;;;;5033276;28;20283;-73
2023/10/21 06:47:09;;;;;;;2.55;1.35;;;;;;;;;;5041016;28;20024;-72
2023/10/21 06:49:34;;;;;;;3.50;1.38;;;;;;;;;;5026878;28;20029;-73
2023/10/21 06:52:00;;;;;;;8.23;2.83;;;;;;;;;;5038140;28;20021;-73
2023/10/21 06:54:25;;;;;;;4.65;1.83;;;;;;;;;;5032783;28;20451;-72
2023/10/21 06:56:50;;;;;;;2.57;0.97;;;;;;;;;;5033221;28;20021;-73
2023/10/21 06:59:15;;;;;;;7.43;2.20;;;;;;;;;;5035050;28;20267;-72
2023/10/21 07:01:41;;;;;;;11.67;3.23;;;;;;;;;;5042828;28;20078;-73
2023/10/21 07:04:06;;;;;;;6.50;1.73;;;;;;;;;;5049007;28;20268;-71
2023/10/21 07:06:32;;;;;;;2.13;0.90;;;;;;;;;;5040644;28;20465;-72
2023/10/21 07:08:57;;;;;;;17.63;3.43;;;;;;;;;;5030729;28;20017;-73
2023/10/21 07:11:23;;;;;;;2.33;1.13;;;;;;;;;;5042861;28;20268;-73
2023/10/21 07:13:49;;;;;;;1.77;0.90;;;;;;;;;;5039483;28;20285;-73
2023/10/21 07:16:14;;;;;;;0.83;0.70;;;;;;;;;;5041024;28;20029;-73
2023/10/21 07:18:39;;;;;;;1.07;0.70;;;;;;;;;;5046006;28;20651;-73
2023/10/21 07:21:05;;;;;;;3.30;0.80;;;;;;;;;;5040822;28;20267;-72
2023/10/21 07:23:31;;;;;;;14.48;2.65;;;;;;;;;;5043223;28;20074;-73
2023/10/21 07:25:56;;;;;;;5.13;1.42;;;;;;;;;;5045855;28;20096;-73
2023/10/21 07:28:21;;;;;;;5.68;2.60;;;;;;;;;;5035626;28;20551;-73
2023/10/21 07:30:46;;;;;;;17.60;4.97;;;;;;;;;;5043481;28;20068;-73
2023/10/21 07:33:13;;;;;;;14.93;5.00;;;;;;;;;;5037911;28;20348;-73
2023/10/21 07:35:38;;;;;;;7.28;2.53;;;;;;;;;;5039113;28;20259;-72
2023/10/21 07:38:03;;;;;;;4.43;1.47;;;;;;;;;;5040680;28;20055;-73
2023/10/21 07:40:32;;;;;;;5.63;2.23;;;;;;;;;;5042252;28;20299;-73
2023/10/21 07:42:59;;;;;;;7.78;2.60;;;;;;;;;;5048741;28;20531;-72
2023/10/21 07:45:25;;;;;;;5.03;2.25;;;;;;;;;;5034312;28;20036;-72
2023/10/21 07:47:50;;;;;;;5.63;1.08;;;;;;;;;;5036717;28;20310;-72
2023/10/21 07:50:17;;;;;;;2.75;1.15;;;;;;;;;;5030718;28;20020;-72
2023/10/21 07:52:43;;;;;;;2.13;0.80;;;;;;;;;;5031456;28;20382;-72
2023/10/21 07:55:11;;;;;;;4.55;1.20;;;;;;;;;;5038282;28;20488;-72
2023/10/21 07:57:38;;;;;;;1.95;0.65;;;;;;;;;;5042330;28;20020;-72
2023/10/21 08:00:04;;;;;;;2.45;0.30;;;;;;;;;;5043975;28;20017;-72
2023/10/21 08:02:30;;;;;;;4.75;1.52;;;;;;;;;;5039237;28;20028;-72
2023/10/21 08:04:55;;;;;;;2.47;0.50;;;;;;;;;;5046987;28;20025;-72
2023/10/21 08:07:21;;;;;;;0.60;0.40;;;;;;;;;;5047378;28;20256;-71
2023/10/21 08:09:47;;;;;;;1.90;0.50;;;;;;;;;;5038570;28;20055;-72
2023/10/21 08:12:12;;;;;;;2.63;1.00;;;;;;;;;;5033834;28;20074;-72
2023/10/21 08:14:40;;;;;;;0.13;0.13;;;;;;;;;;5036632;28;20033;-72
2023/10/21 08:17:05;;;;;;;0.82;0.40;;;;;;;;;;5036535;28;20013;-72
2023/10/21 08:19:31;;;;;;;0.35;0.35;;;;;;;;;;5035628;28;20032;-72
2023/10/21 08:21:56;;;;;;;1.25;0.22;;;;;;;;;;5028064;28;20022;-72
2023/10/21 08:24:21;;;;;;;0.20;0.10;;;;;;;;;;5030377;28;20043;-71
2023/10/21 08:26:47;;;;;;;1.27;0.30;;;;;;;;;;5027607;28;20049;-72
2023/10/21 08:29:12;;;;;;;0.20;0.20;;;;;;;;;;5022520;28;20025;-72
2023/10/21 08:31:37;;;;;;;2.07;0.30;;;;;;;;;;5027099;28;20287;-72
2023/10/21 08:34:02;;;;;;;0.30;0.10;;;;;;;;;;5027706;28;20268;-72
2023/10/21 08:36:27;;;;;;;0.30;0.20;;;;;;;;;;5034190;28;20021;-71
2023/10/21 08:38:53;;;;;;;0.87;0.50;;;;;;;;;;5021643;28;20032;-72
2023/10/21 08:41:19;;;;;;;0.38;0.10;;;;;;;;;;5030825;28;20017;-71
2023/10/21 08:43:48;;;;;;;1.13;0.50;;;;;;;;;;5024591;28;20018;-71
2023/10/21 08:46:15;;;;;;;0.60;0.25;;;;;;;;;;5020560;28;20017;-71
2023/10/21 08:48:41;;;;;;;1.85;0.50;;;;;;;;;;5013279;28;20022;-71
2023/10/21 08:51:08;;;;;;;0.05;0.05;;;;;;;;;;5021630;28;20072;-71
2023/10/21 08:53:36;;;;;;;1.27;0.30;;;;;;;;;;5023520;28;20312;-71
2023/10/21 08:56:01;;;;;;;0.75;0.28;;;;;;;;;;5030795;28;20022;-71
2023/10/21 08:58:29;;;;;;;0.27;0.20;;;;;;;;;;5013647;28;20134;-72
2023/10/21 09:00:54;;;;;;;6.28;0.60;;;;;;;;;;5014077;28;20296;-72
2023/10/21 09:03:20;;;;;;;0.57;0.22;;;;;;;;;;5022195;28;20084;-72
2023/10/21 09:06:04;;;;;;;0.40;0.30;;;;;;;;;;5021076;28;20024;-72
2023/10/21 09:08:32;;;;;;;0.75;0.50;;;;;;;;;;5013016;28;20026;-72
2023/10/21 09:10:59;;;;;;;1.20;0.40;;;;;;;;;;5023223;28;20028;-74
2023/10/21 09:13:29;;;;;;;12.27;0.63;;;;;;;;;;5026216;28;20031;-72
2023/10/21 09:15:54;;;;;;;1.30;0.40;;;;;;;;;;5021594;28;20434;-72
2023/10/21 09:18:19;;;;;;;0.10;0.10;;;;;;;;;;5023642;28;20032;-71
2023/10/21 09:20:48;;;;;;;1.00;0.20;;;;;;;;;;5036253;28;20060;-72
2023/10/21 09:23:13;;;;;;;1.95;0.40;;;;;;;;;;5037271;28;20664;-71
2023/10/21 09:25:38;;;;;;;0.40;0.40;;;;;;;;;;5029661;28;20071;-71
2023/10/21 09:28:03;;;;;;;0.73;0.33;;;;;;;;;;5032393;28;20104;-71
2023/10/21 09:30:29;;;;;;;1.50;0.30;;;;;;;;;;5030125;28;20516;-72
2023/10/21 09:33:04;;;;;;;3.17;0.45;;;;;;;;;;5034671;28;20049;-71
2023/10/21 09:35:30;;;;;;;1.08;0.35;;;;;;;;;;5036134;28;20470;-71
2023/10/21 09:37:56;;;;;;;1.73;0.47;;;;;;;;;;5036921;28;20100;-71
2023/10/21 09:40:21;;;;;;;1.73;0.38;;;;;;;;;;5027692;28;20112;-71
2023/10/21 09:42:52;;;;;;;2.13;0.80;;;;;;;;;;5034907;28;20006;-71
2023/10/21 09:45:17;;;;;;;1.67;0.40;;;;;;;;;;5028705;28;20302;-71
2023/10/21 09:47:43;;;;;;;0.55;0.32;;;;;;;;;;5030430;28;20017;-71
2023/10/21 09:50:10;;;;;;;1.63;0.63;;;;;;;;;;5037334;28;20017;-71
2023/10/21 09:52:39;;;;;;;1.63;0.60;;;;;;;;;;5023903;28;20403;-71
2023/10/21 09:55:07;;;;;;;2.88;0.85;;;;;;;;;;5024134;28;20042;-71
2023/10/21 09:57:35;;;;;;;1.77;0.40;;;;;;;;;;5027292;28;20516;-71
2023/10/21 10:00:02;;;;;;;3.10;0.80;;;;;;;;;;5021292;28;20060;-71
2023/10/21 10:02:27;;;;;;;4.25;0.80;;;;;;;;;;5030612;28;20034;-71
2023/10/21 10:04:53;;;;;;;6.35;0.80;;;;;;;;;;5027822;28;20021;-70
2023/10/21 10:07:19;;;;;;;4.30;0.93;;;;;;;;;;5025522;28;20028;-70
2023/10/21 10:09:45;;;;;;;2.05;0.60;;;;;;;;;;5030106;28;20056;-71
2023/10/21 10:12:23;;;;;;;6.13;0.70;;;;;;;;;;5026808;28;20068;-70
2023/10/21 10:14:48;;;;;;;4.20;1.58;;;;;;;;;;5028863;28;20486;-70
2023/10/21 10:17:13;;;;;;;0.77;0.30;;;;;;;;;;5034018;28;20022;-71
2023/10/21 10:19:39;;;;;;;3.90;0.70;;;;;;;;;;5033231;28;20313;-70
2023/10/21 10:22:20;;;;;;;4.65;0.52;;;;;;;;;;5029591;28;20021;-70
2023/10/21 10:25:15;;;;;;;2.35;0.50;;;;;;;;;;5029013;28;20025;-70
2023/10/21 10:27:40;;;;;;;3.55;0.55;;;;;;;;;;5024321;28;20083;-70
2023/10/21 10:30:09;;;;;;;2.53;0.68;;;;;;;;;;5031281;28;20021;-71
2023/10/21 10:32:43;;;;;;;3.47;0.73;;;;;;;;;;5030729;28;20025;-70
2023/10/21 10:35:08;;;;;;;3.80;0.68;;;;;;;;;;5031254;28;20021;-71
2023/10/21 10:37:34;;;;;;;0.70;0.60;;;;;;;;;;5031703;28;20084;-71
2023/10/21 10:40:05;;;;;;;1.92;0.65;;;;;;;;;;5028581;28;20291;-71
2023/10/21 10:42:31;;;;;;;5.75;2.08;;;;;;;;;;5029834;28;20434;-71
2023/10/21 10:44:56;;;;;;;4.18;0.30;;;;;;;;;;5029548;28;20100;-71
2023/10/21 10:47:22;;;;;;;3.70;0.40;;;;;;;;;;5026475;28;20067;-71
2023/10/21 10:49:54;;;;;;;0.22;0.20;;;;;;;;;;5029342;28;20036;-71
2023/10/21 10:52:31;;;;;;;1.30;0.75;;;;;;;;;;5027646;28;20498;-71
2023/10/21 10:54:57;;;;;;;4.05;0.30;;;;;;;;;;5027932;28;20319;-71
2023/10/21 10:57:23;;;;;;;1.55;0.85;;;;;;;;;;5024014;28;20014;-71
2023/10/21 10:59:50;;;;;;;0.88;0.32;;;;;;;;;;5033230;28;20109;-71
2023/10/21 11:02:16;;;;;;;1.48;0.40;;;;;;;;;;5023091;28;20014;-71
2023/10/21 11:04:43;;;;;;;13.10;0.68;;;;;;;;;;5028398;28;20099;-71
2023/10/21 11:07:09;;;;;;;0.47;0.20;;;;;;;;;;5028977;28;20013;-71
2023/10/21 11:09:34;;;;;;;2.10;0.32;;;;;;;;;;5031825;28;20025;-71
2023/10/21 11:11:59;;;;;;;0.77;0.40;;;;;;;;;;5028423;28;20481;-71
2023/10/21 11:14:26;;;;;;;1.90;0.50;;;;;;;;;;5031719;28;20021;-71
2023/10/21 11:16:52;;;;;;;1.83;0.50;;;;;;;;;;5033479;28;20341;-71
2023/10/21 11:19:17;;;;;;;0.10;0.10;;;;;;;;;;5029184;28;20022;-71
2023/10/21 11:21:48;;;;;;;1.30;0.40;;;;;;;;;;5031156;28;20068;-71
2023/10/21 11:24:13;;;;;;;3.45;0.60;;;;;;;;;;5028621;28;20108;-70
2023/10/21 11:26:39;;;;;;;3.33;0.50;;;;;;;;;;5034125;28;20303;-71
2023/10/21 11:29:07;;;;;;;5.03;0.40;;;;;;;;;;5036185;28;20524;-71
2023/10/21 11:31:35;;;;;;;2.20;0.93;;;;;;;;;;5034712;28;20024;-71
2023/10/21 11:34:13;;;;;;;0.95;0.30;;;;;;;;;;5035273;28;20048;-70
2023/10/21 11:36:40;;;;;;;4.35;0.63;;;;;;;;;;5038731;28;20028;-71
2023/10/21 11:39:13;;;;;;;3.95;0.85;;;;;;;;;;5037673;28;20048;-71
2023/10/21 11:41:45;;;;;;;7.85;1.08;;;;;;;;;;5038646;28;20450;-71
2023/10/21 11:44:11;;;;;;;4.03;0.73;;;;;;;;;;5034853;28;20022;-71
2023/10/21 11:46:36;;;;;;;3.50;0.83;;;;;;;;;;5037585;28;20083;-71
2023/10/21 11:49:04;;;;;;;4.30;0.85;;;;;;;;;;5035513;28;20294;-71
2023/10/21 11:51:29;;;;;;;6.38;0.98;;;;;;;;;;5035657;28;20421;-71
2023/10/21 11:53:54;;;;;;;6.47;0.90;;;;;;;;;;5033020;28;20015;-71
2023/10/21 12:07:56;;;;;;;6.43;1.38;;;;;;;;;;5033315;28;20037;-71
2023/10/21 12:24:08;;;;;;;3.63;0.95;;;;;;;;;;5035663;28;20557;-71
2023/10/21 12:32:25;;;;;;;6.43;1.05;;;;;;;;;;5037253;28;20024;-71
2023/10/21 12:35:01;;;;;;;3.63;0.77;;;;;;;;;;5032573;28;20071;-71
2023/10/21 12:37:30;;;;;;;7.70;1.08;;;;;;;;;;5033198;28;20038;-72
2023/10/21 12:40:30;;;;;;;7.68;1.10;;;;;;;;;;5037341;28;20028;-71
2023/10/21 12:42:48;;;;;;;13.45;0.93;;;;;;;;;;5034078;28;20343;-71
2023/10/21 12:45:19;;;;;;;3.35;0.90;;;;;;;;;;5029267;28;20415;-72
2023/10/21 12:47:44;;;;;;;3.97;0.73;;;;;;;;;;5033732;28;20029;-71
2023/10/21 12:50:12;;;;;;;6.47;1.33;;;;;;;;;;5030837;28;20036;-72
2023/10/21 12:52:38;;;;;;;4.75;0.68;;;;;;;;;;5034403;28;20021;-72
2023/10/21 12:55:06;;;;;;;8.43;1.23;;;;;;;;;;5030136;28;20013;-71
2023/10/21 12:57:31;;;;;;;11.48;1.40;;;;;;;;;;5034684;28;20018;-71
2023/10/21 12:59:57;;;;;;;10.83;1.60;;;;;;;;;;5030460;28;20021;-71
2023/10/21 13:02:22;;;;;;;5.47;0.88;;;;;;;;;;5032210;28;20260;-72
2023/10/21 13:04:47;;;;;;;4.77;1.30;;;;;;;;;;5037332;28;20024;-71
2023/10/21 13:07:12;;;;;;;4.70;0.63;;;;;;;;;;5034416;28;20405;-71
2023/10/21 13:09:40;;;;;;;2.50;0.80;;;;;;;;;;5034785;28;20024;-71
2023/10/21 13:12:09;;;;;;;5.70;1.15;;;;;;;;;;5032043;28;20017;-72
2023/10/21 13:14:34;;;;;;;4.15;0.85;;;;;;;;;;5032532;28;20029;-71
2023/10/21 13:16:59;;;;;;;5.43;1.00;;;;;;;;;;5032300;28;20021;-71
2023/10/21 13:19:25;;;;;;;6.40;0.57;;;;;;;;;;5031035;28;20391;-71
2023/10/21 13:21:53;;;;;;;6.03;0.75;;;;;;;;;;5035673;28;20096;-71
2023/10/21 13:24:18;;;;;;;5.07;0.98;;;;;;;;;;5026464;28;20014;-71
2023/10/21 13:26:43;;;;;;;2.60;0.68;;;;;;;;;;5035107;28;20021;-72
2023/10/21 13:29:09;;;;;;;3.55;0.90;;;;;;;;;;5030345;28;20017;-71
2023/10/21 13:31:34;;;;;;;6.03;1.27;;;;;;;;;;5033515;28;20455;-72
2023/10/21 13:34:02;;;;;;;4.72;1.48;;;;;;;;;;5033079;28;20051;-72
2023/10/21 13:36:27;;;;;;;1.55;0.80;;;;;;;;;;5029576;28;20465;-71
2023/10/21 13:38:53;;;;;;;2.53;0.57;;;;;;;;;;5035614;28;20083;-72
2023/10/21 13:41:18;;;;;;;4.67;0.70;;;;;;;;;;5030226;28;20319;-72
2023/10/21 13:46:45;;;;;;;5.97;1.45;;;;;;;;;;5025706;28;20020;-72
2023/10/21 13:49:14;;;;;;;5.78;1.08;;;;;;;;;;5029094;28;20257;-72
2023/10/21 13:51:40;;;;;;;11.40;1.90;;;;;;;;;;5029146;28;20025;-71
2023/10/21 13:54:09;;;;;;;7.72;1.42;;;;;;;;;;5038971;28;20495;-72
2023/10/21 13:56:34;;;;;;;3.00;0.50;;;;;;;;;;5035701;28;20017;-72
2023/10/21 13:58:59;;;;;;;6.40;1.47;;;;;;;;;;5039194;28;20359;-72
2023/10/21 14:01:24;;;;;;;7.43;1.63;;;;;;;;;;5039329;28;20025;-72
2023/10/21 14:03:50;;;;;;;11.95;1.60;;;;;;;;;;5038765;28;20263;-72
2023/10/21 14:06:19;;;;;;;5.72;0.90;;;;;;;;;;5038678;28;20020;-72
2023/10/21 14:08:44;;;;;;;3.88;1.00;;;;;;;;;;5031819;28;20402;-72
2023/10/21 14:11:10;;;;;;;6.13;0.80;;;;;;;;;;5027984;28;20092;-72
2023/10/21 14:13:35;;;;;;;3.17;1.17;;;;;;;;;;5035729;28;20036;-72
2023/10/21 14:16:05;;;;;;;7.25;0.90;;;;;;;;;;5034962;28;20025;-72
2023/10/21 14:18:30;;;;;;;5.27;0.90;;;;;;;;;;5032580;28;20017;-72
2023/10/21 14:20:56;;;;;;;2.58;0.63;;;;;;;;;;5031589;28;20260;-72
2023/10/21 14:23:22;;;;;;;5.45;0.77;;;;;;;;;;5037037;28;20080;-72
2023/10/21 14:25:52;;;;;;;10.90;1.38;;;;;;;;;;5032014;28;20032;-72
2023/10/21 14:28:18;;;;;;;;;;;;;;;;;;5026546;28;20021;-72
2023/10/21 14:30:47;;;;;;;5.13;0.80;;;;;;;;;;5037817;28;20364;-72
2023/10/21 14:33:13;;;;;;;3.13;1.13;;;;;;;;;;5038295;28;20014;-72
2023/10/21 14:35:39;;;;;;;9.25;1.27;;;;;;;;;;5040035;28;20409;-72
2023/10/21 14:38:06;;;;;;;3.97;0.73;;;;;;;;;;5030246;28;20025;-72
2023/10/21 14:40:31;;;;;;;9.57;1.27;;;;;;;;;;5034855;28;20052;-72
2023/10/21 14:42:56;;;;;;;3.37;1.30;;;;;;;;;;5035937;28;20508;-72
2023/10/21 14:45:21;;;;;;;7.17;0.93;;;;;;;;;;5033468;28;20014;-72
2023/10/21 14:47:46;;;;;;;5.20;1.25;;;;;;;;;;5042014;28;20338;-72
2023/10/21 14:50:12;;;;;;;4.00;1.20;;;;;;;;;;5031994;28;20025;-72
2023/10/21 14:52:37;;;;;;;4.30;1.20;;;;;;;;;;5040188;28;20272;-72
2023/10/21 14:55:05;;;;;;;6.73;0.93;;;;;;;;;;5030391;28;20113;-72
2023/10/21 14:57:31;;;;;;;9.30;1.73;;;;;;;;;;5030952;28;20260;-72
2023/10/21 14:59:57;;;;;;;8.13;1.53;;;;;;;;;;5033753;28;20021;-72
2023/10/21 15:02:22;;;;;;;3.92;1.30;;;;;;;;;;5034270;28;20763;-73
2023/10/21 15:04:49;;;;;;;6.60;1.20;;;;;;;;;;5031518;28;20021;-72
2023/10/21 15:07:14;;;;;;;4.25;0.80;;;;;;;;;;5033832;28;20021;-72
2023/10/21 15:09:40;;;;;;;3.20;0.77;;;;;;;;;;5035236;28;20521;-72
2023/10/21 15:12:06;;;;;;;2.13;0.83;;;;;;;;;;5040632;28;20013;-72